sensor_id;sensor_type;location;lat;lon;timestamp;temperature;humidity
64855;DHT22;51321;50.428;8.378;2024-02-21T00:02:33;7.90;99.90
64855;DHT22;51321;50.428;8.378;2024-02-21T00:05:14;7.90;99.90
64855;DHT22;51321;50.428;8.378;2024-02-21T00:07:54;7.80;99.90
64855;DHT22;51321;50.428;8.378;2024-02-21T00:10:35;7.80;99.90
64855;DHT22;51321;50.428;8.378;2024-02-21T00:13:16;7.70;99.90
64855;DHT22;51321;50.428;8.378;2024-02-21T00:15:57;7.70;99.90
64855;DHT22;51321;50.428;8.378;2024-02-21T00:18:38;7.70;99.90
64855;DHT22;51321;50.428;8.378;2024-02-21T00:21:18;7.70;99.90
64855;DHT22;51321;50.428;8.378;2024-02-21T00:23:59;7.60;99.90
64855;DHT22;51321;50.428;8.378;2024-02-21T00:26:39;7.70;99.90
64855;DHT22;51321;50.428;8.378;2024-02-21T00:29:19;7.60;99.90
64855;DHT22;51321;50.428;8.378;2024-02-21T00:32:01;7.60;99.90
64855;DHT22;51321;50.428;8.378;2024-02-21T00:34:42;7.60;99.90
64855;DHT22;51321;50.428;8.378;2024-02-21T00:37:23;7.60;99.90
64855;DHT22;51321;50.428;8.378;2024-02-21T00:40:06;7.60;99.90
64855;DHT22;51321;50.428;8.378;2024-02-21T00:42:47;7.60;99.90
64855;DHT22;51321;50.428;8.378;2024-02-21T00:45:27;7.60;99.90
64855;DHT22;51321;50.428;8.378;2024-02-21T00:48:10;7.70;99.90
64855;DHT22;51321;50.428;8.378;2024-02-21T00:50:50;7.70;99.90
64855;DHT22;51321;50.428;8.378;2024-02-21T00:53:31;7.60;99.90
64855;DHT22;51321;50.428;8.378;2024-02-21T00:56:11;7.70;99.90
64855;DHT22;51321;50.428;8.378;2024-02-21T00:58:52;7.70;99.90
64855;DHT22;51321;50.428;8.378;2024-02-21T01:01:32;7.60;99.90
64855;DHT22;51321;50.428;8.378;2024-02-21T01:04:14;7.70;99.90
64855;DHT22;51321;50.428;8.378;2024-02-21T01:06:54;7.70;99.90
64855;DHT22;51321;50.428;8.378;2024-02-21T01:09:35;7.70;99.90
64855;DHT22;51321;50.428;8.378;2024-02-21T01:12:15;7.70;99.90
64855;DHT22;51321;50.428;8.378;2024-02-21T01:14:56;7.70;99.90
64855;DHT22;51321;50.428;8.378;2024-02-21T01:17:36;7.70;99.90
64855;DHT22;51321;50.428;8.378;2024-02-21T01:20:18;7.70;99.90
64855;DHT22;51321;50.428;8.378;2024-02-21T01:22:58;7.70;99.90
64855;DHT22;51321;50.428;8.378;2024-02-21T01:25:39;7.60;99.90
64855;DHT22;51321;50.428;8.378;2024-02-21T01:28:19;7.70;99.90
64855;DHT22;51321;50.428;8.378;2024-02-21T01:31:00;7.80;99.90
64855;DHT22;51321;50.428;8.378;2024-02-21T01:33:40;7.80;99.90
64855;DHT22;51321;50.428;8.378;2024-02-21T01:36:23;7.80;99.90
64855;DHT22;51321;50.428;8.378;2024-02-21T01:39:04;7.80;99.90
64855;DHT22;51321;50.428;8.378;2024-02-21T01:41:44;7.90;99.90
64855;DHT22;51321;50.428;8.378;2024-02-21T01:44:25;7.90;99.90
64855;DHT22;51321;50.428;8.378;2024-02-21T01:47:05;7.90;99.90
64855;DHT22;51321;50.428;8.378;2024-02-21T01:49:46;7.90;99.90
64855;DHT22;51321;50.428;8.378;2024-02-21T01:52:28;7.90;99.90
64855;DHT22;51321;50.428;8.378;2024-02-21T01:55:10;7.90;99.90
64855;DHT22;51321;50.428;8.378;2024-02-21T01:57:52;7.90;99.90
64855;DHT22;51321;50.428;8.378;2024-02-21T02:00:33;7.90;99.90
64855;DHT22;51321;50.428;8.378;2024-02-21T02:03:15;8.00;99.90
64855;DHT22;51321;50.428;8.378;2024-02-21T02:05:55;7.90;99.90
64855;DHT22;51321;50.428;8.378;2024-02-21T02:08:37;7.90;99.90
64855;DHT22;51321;50.428;8.378;2024-02-21T02:14:45;7.90;99.90
64855;DHT22;51321;50.428;8.378;2024-02-21T02:17:26;7.90;99.90
64855;DHT22;51321;50.428;8.378;2024-02-21T02:20:07;8.00;99.90
64855;DHT22;51321;50.428;8.378;2024-02-21T02:22:49;8.00;99.90
64855;DHT22;51321;50.428;8.378;2024-02-21T02:25:30;8.00;99.90
64855;DHT22;51321;50.428;8.378;2024-02-21T02:28:11;8.00;99.90
64855;DHT22;51321;50.428;8.378;2024-02-21T02:30:51;8.00;99.90
64855;DHT22;51321;50.428;8.378;2024-02-21T02:33:32;8.00;99.90
64855;DHT22;51321;50.428;8.378;2024-02-21T02:36:12;8.00;99.90
64855;DHT22;51321;50.428;8.378;2024-02-21T02:38:53;8.00;99.90
64855;DHT22;51321;50.428;8.378;2024-02-21T02:41:36;7.90;99.90
64855;DHT22;51321;50.428;8.378;2024-02-21T02:44:16;8.00;99.90
64855;DHT22;51321;50.428;8.378;2024-02-21T02:46:57;8.10;99.90
64855;DHT22;51321;50.428;8.378;2024-02-21T02:49:37;8.00;99.90
64855;DHT22;51321;50.428;8.378;2024-02-21T02:52:18;8.00;99.90
64855;DHT22;51321;50.428;8.378;2024-02-21T02:54:59;8.00;99.90
64855;DHT22;51321;50.428;8.378;2024-02-21T02:57:42;7.90;99.90
64855;DHT22;51321;50.428;8.378;2024-02-21T03:00:23;8.00;99.90
64855;DHT22;51321;50.428;8.378;2024-02-21T03:03:04;8.00;99.90
64855;DHT22;51321;50.428;8.378;2024-02-21T03:05:44;8.00;99.90
64855;DHT22;51321;50.428;8.378;2024-02-21T03:08:25;8.10;99.90
64855;DHT22;51321;50.428;8.378;2024-02-21T03:11:06;8.10;99.90
64855;DHT22;51321;50.428;8.378;2024-02-21T03:13:49;8.10;99.90
64855;DHT22;51321;50.428;8.378;2024-02-21T03:16:30;8.10;99.90
64855;DHT22;51321;50.428;8.378;2024-02-21T03:19:10;8.00;99.90
64855;DHT22;51321;50.428;8.378;2024-02-21T03:21:51;8.10;99.90
64855;DHT22;51321;50.428;8.378;2024-02-21T03:24:32;8.00;99.90
64855;DHT22;51321;50.428;8.378;2024-02-21T03:27:12;8.00;99.90
64855;DHT22;51321;50.428;8.378;2024-02-21T03:29:54;8.00;99.90
64855;DHT22;51321;50.428;8.378;2024-02-21T03:32:34;8.00;99.90
64855;DHT22;51321;50.428;8.378;2024-02-21T03:35:15;7.90;99.90
64855;DHT22;51321;50.428;8.378;2024-02-21T03:37:55;7.90;99.90
64855;DHT22;51321;50.428;8.378;2024-02-21T03:40:36;8.00;99.90
64855;DHT22;51321;50.428;8.378;2024-02-21T03:43:17;8.00;99.90
64855;DHT22;51321;50.428;8.378;2024-02-21T03:45:58;8.10;99.90
64855;DHT22;51321;50.428;8.378;2024-02-21T03:48:40;8.10;99.90
64855;DHT22;51321;50.428;8.378;2024-02-21T03:51:20;8.10;99.90
64855;DHT22;51321;50.428;8.378;2024-02-21T03:54:01;8.10;99.90
64855;DHT22;51321;50.428;8.378;2024-02-21T03:56:41;8.10;99.90
64855;DHT22;51321;50.428;8.378;2024-02-21T03:59:22;8.00;99.90
64855;DHT22;51321;50.428;8.378;2024-02-21T04:02:04;8.00;99.90
64855;DHT22;51321;50.428;8.378;2024-02-21T04:04:48;8.00;99.90
64855;DHT22;51321;50.428;8.378;2024-02-21T04:07:28;8.00;99.90
64855;DHT22;51321;50.428;8.378;2024-02-21T04:10:08;8.10;99.90
64855;DHT22;51321;50.428;8.378;2024-02-21T04:12:49;8.10;99.90
64855;DHT22;51321;50.428;8.378;2024-02-21T04:15:30;8.10;99.90
64855;DHT22;51321;50.428;8.378;2024-02-21T04:18:12;8.10;99.90
64855;DHT22;51321;50.428;8.378;2024-02-21T04:20:53;8.10;99.90
64855;DHT22;51321;50.428;8.378;2024-02-21T04:23:34;8.10;99.90
64855;DHT22;51321;50.428;8.378;2024-02-21T04:26:15;8.20;99.90
64855;DHT22;51321;50.428;8.378;2024-02-21T04:28:55;8.20;99.90
64855;DHT22;51321;50.428;8.378;2024-02-21T04:31:35;8.10;99.90
64855;DHT22;51321;50.428;8.378;2024-02-21T04:34:17;8.00;99.90
64855;DHT22;51321;50.428;8.378;2024-02-21T04:36:57;8.00;99.90
64855;DHT22;51321;50.428;8.378;2024-02-21T04:39:38;8.00;99.90
64855;DHT22;51321;50.428;8.378;2024-02-21T04:42:19;8.00;99.90
64855;DHT22;51321;50.428;8.378;2024-02-21T04:44:59;8.00;99.90
64855;DHT22;51321;50.428;8.378;2024-02-21T04:47:39;8.00;99.90
64855;DHT22;51321;50.428;8.378;2024-02-21T04:50:21;8.00;99.90
64855;DHT22;51321;50.428;8.378;2024-02-21T04:53:01;8.00;99.90
64855;DHT22;51321;50.428;8.378;2024-02-21T04:55:42;8.00;99.90
64855;DHT22;51321;50.428;8.378;2024-02-21T04:58:22;8.00;99.90
64855;DHT22;51321;50.428;8.378;2024-02-21T05:01:03;8.10;99.90
64855;DHT22;51321;50.428;8.378;2024-02-21T05:03:43;8.20;99.90
64855;DHT22;51321;50.428;8.378;2024-02-21T05:06:25;8.10;99.90
64855;DHT22;51321;50.428;8.378;2024-02-21T05:09:06;8.10;99.90
64855;DHT22;51321;50.428;8.378;2024-02-21T05:11:47;8.10;99.90
64855;DHT22;51321;50.428;8.378;2024-02-21T05:14:27;8.10;99.90
64855;DHT22;51321;50.428;8.378;2024-02-21T05:17:08;8.10;99.90
64855;DHT22;51321;50.428;8.378;2024-02-21T05:19:49;8.10;99.90
64855;DHT22;51321;50.428;8.378;2024-02-21T05:22:31;8.10;99.90
64855;DHT22;51321;50.428;8.378;2024-02-21T05:25:11;8.10;99.90
64855;DHT22;51321;50.428;8.378;2024-02-21T05:27:52;8.10;99.90
64855;DHT22;51321;50.428;8.378;2024-02-21T05:30:33;8.10;99.90
64855;DHT22;51321;50.428;8.378;2024-02-21T05:33:13;8.10;99.90
64855;DHT22;51321;50.428;8.378;2024-02-21T05:36:00;8.10;99.90
64855;DHT22;51321;50.428;8.378;2024-02-21T05:38:42;8.10;99.90
64855;DHT22;51321;50.428;8.378;2024-02-21T05:41:23;8.10;99.90
64855;DHT22;51321;50.428;8.378;2024-02-21T05:44:04;8.00;99.90
64855;DHT22;51321;50.428;8.378;2024-02-21T05:46:45;8.00;99.90
64855;DHT22;51321;50.428;8.378;2024-02-21T05:49:26;8.10;99.90
64855;DHT22;51321;50.428;8.378;2024-02-21T05:52:06;8.10;99.90
64855;DHT22;51321;50.428;8.378;2024-02-21T05:54:48;8.10;99.90
64855;DHT22;51321;50.428;8.378;2024-02-21T05:57:29;8.00;99.90
64855;DHT22;51321;50.428;8.378;2024-02-21T06:00:10;7.90;99.90
64855;DHT22;51321;50.428;8.378;2024-02-21T06:02:54;7.90;99.90
64855;DHT22;51321;50.428;8.378;2024-02-21T06:05:37;7.90;99.90
64855;DHT22;51321;50.428;8.378;2024-02-21T06:08:18;7.90;99.90
64855;DHT22;51321;50.428;8.378;2024-02-21T06:11:00;7.90;99.90
64855;DHT22;51321;50.428;8.378;2024-02-21T06:13:40;7.90;99.90
64855;DHT22;51321;50.428;8.378;2024-02-21T06:16:21;7.90;99.90
64855;DHT22;51321;50.428;8.378;2024-02-21T06:19:02;7.90;99.90
64855;DHT22;51321;50.428;8.378;2024-02-21T06:21:43;7.90;99.90
64855;DHT22;51321;50.428;8.378;2024-02-21T06:24:23;7.90;99.90
64855;DHT22;51321;50.428;8.378;2024-02-21T06:27:05;7.90;99.90
64855;DHT22;51321;50.428;8.378;2024-02-21T06:29:46;7.90;99.90
64855;DHT22;51321;50.428;8.378;2024-02-21T06:32:26;8.00;99.90
64855;DHT22;51321;50.428;8.378;2024-02-21T06:35:07;7.90;99.90
64855;DHT22;51321;50.428;8.378;2024-02-21T06:37:47;7.90;99.90
64855;DHT22;51321;50.428;8.378;2024-02-21T06:40:30;7.90;99.90
64855;DHT22;51321;50.428;8.378;2024-02-21T06:43:20;7.90;99.90
64855;DHT22;51321;50.428;8.378;2024-02-21T06:46:01;7.90;99.90
64855;DHT22;51321;50.428;8.378;2024-02-21T06:48:42;7.90;99.90
64855;DHT22;51321;50.428;8.378;2024-02-21T06:51:22;7.80;99.90
64855;DHT22;51321;50.428;8.378;2024-02-21T06:54:02;7.80;99.90
64855;DHT22;51321;50.428;8.378;2024-02-21T06:56:43;7.90;99.90
64855;DHT22;51321;50.428;8.378;2024-02-21T06:59:25;7.90;99.90
64855;DHT22;51321;50.428;8.378;2024-02-21T07:02:05;7.90;99.90
64855;DHT22;51321;50.428;8.378;2024-02-21T07:04:46;7.90;99.90
64855;DHT22;51321;50.428;8.378;2024-02-21T07:07:26;7.90;99.90
64855;DHT22;51321;50.428;8.378;2024-02-21T07:10:08;7.90;99.90
64855;DHT22;51321;50.428;8.378;2024-02-21T07:12:50;7.90;99.90
64855;DHT22;51321;50.428;8.378;2024-02-21T07:15:33;8.00;99.90
64855;DHT22;51321;50.428;8.378;2024-02-21T07:18:15;8.00;99.90
64855;DHT22;51321;50.428;8.378;2024-02-21T07:20:55;8.10;99.90
64855;DHT22;51321;50.428;8.378;2024-02-21T07:23:36;8.00;99.90
64855;DHT22;51321;50.428;8.378;2024-02-21T07:26:16;8.10;99.90
64855;DHT22;51321;50.428;8.378;2024-02-21T07:28:57;8.00;99.90
64855;DHT22;51321;50.428;8.378;2024-02-21T07:31:42;8.00;99.90
64855;DHT22;51321;50.428;8.378;2024-02-21T07:34:23;8.00;99.90
64855;DHT22;51321;50.428;8.378;2024-02-21T07:37:03;8.10;99.90
64855;DHT22;51321;50.428;8.378;2024-02-21T07:39:44;8.10;99.90
64855;DHT22;51321;50.428;8.378;2024-02-21T07:42:25;8.20;99.90
64855;DHT22;51321;50.428;8.378;2024-02-21T07:45:06;8.20;99.90
64855;DHT22;51321;50.428;8.378;2024-02-21T07:47:49;8.20;99.90
64855;DHT22;51321;50.428;8.378;2024-02-21T07:50:29;8.20;99.90
64855;DHT22;51321;50.428;8.378;2024-02-21T07:53:10;8.30;99.90
64855;DHT22;51321;50.428;8.378;2024-02-21T07:55:50;8.40;99.90
64855;DHT22;51321;50.428;8.378;2024-02-21T07:58:30;8.50;99.90
64855;DHT22;51321;50.428;8.378;2024-02-21T08:01:11;8.50;99.90
64855;DHT22;51321;50.428;8.378;2024-02-21T08:03:53;8.50;99.90
64855;DHT22;51321;50.428;8.378;2024-02-21T08:06:33;8.60;99.90
64855;DHT22;51321;50.428;8.378;2024-02-21T08:09:13;8.60;99.90
64855;DHT22;51321;50.428;8.378;2024-02-21T08:11:54;8.60;99.90
64855;DHT22;51321;50.428;8.378;2024-02-21T08:14:35;8.60;99.90
64855;DHT22;51321;50.428;8.378;2024-02-21T08:17:15;8.50;99.90
64855;DHT22;51321;50.428;8.378;2024-02-21T08:19:57;8.60;99.90
64855;DHT22;51321;50.428;8.378;2024-02-21T08:22:38;8.60;99.90
64855;DHT22;51321;50.428;8.378;2024-02-21T08:25:18;8.50;99.90
64855;DHT22;51321;50.428;8.378;2024-02-21T08:27:59;8.40;99.90
64855;DHT22;51321;50.428;8.378;2024-02-21T08:30:40;8.50;99.90
64855;DHT22;51321;50.428;8.378;2024-02-21T08:33:23;8.50;99.90
64855;DHT22;51321;50.428;8.378;2024-02-21T08:36:06;8.60;99.90
64855;DHT22;51321;50.428;8.378;2024-02-21T08:38:47;8.70;99.90
64855;DHT22;51321;50.428;8.378;2024-02-21T08:41:29;8.80;99.90
64855;DHT22;51321;50.428;8.378;2024-02-21T08:44:10;8.70;99.90
64855;DHT22;51321;50.428;8.378;2024-02-21T08:46:51;8.70;99.90
64855;DHT22;51321;50.428;8.378;2024-02-21T08:49:32;8.80;99.90
64855;DHT22;51321;50.428;8.378;2024-02-21T08:52:14;8.90;99.90
64855;DHT22;51321;50.428;8.378;2024-02-21T08:54:54;8.90;99.90
64855;DHT22;51321;50.428;8.378;2024-02-21T08:57:34;8.90;99.90
64855;DHT22;51321;50.428;8.378;2024-02-21T09:00:17;9.00;99.90
64855;DHT22;51321;50.428;8.378;2024-02-21T09:03:00;9.10;99.90
64855;DHT22;51321;50.428;8.378;2024-02-21T09:05:41;9.20;99.90
64855;DHT22;51321;50.428;8.378;2024-02-21T09:08:23;9.10;99.90
64855;DHT22;51321;50.428;8.378;2024-02-21T09:11:05;9.10;99.90
64855;DHT22;51321;50.428;8.378;2024-02-21T09:13:46;9.20;99.90
64855;DHT22;51321;50.428;8.378;2024-02-21T09:16:27;9.20;99.90
64855;DHT22;51321;50.428;8.378;2024-02-21T09:19:07;9.30;99.90
64855;DHT22;51321;50.428;8.378;2024-02-21T09:21:50;9.40;99.90
64855;DHT22;51321;50.428;8.378;2024-02-21T09:24:31;9.40;99.90
64855;DHT22;51321;50.428;8.378;2024-02-21T09:27:12;9.30;99.90
64855;DHT22;51321;50.428;8.378;2024-02-21T09:29:52;9.20;99.90
64855;DHT22;51321;50.428;8.378;2024-02-21T09:32:33;9.20;99.90
64855;DHT22;51321;50.428;8.378;2024-02-21T09:35:13;9.20;99.90
64855;DHT22;51321;50.428;8.378;2024-02-21T09:37:54;9.30;99.90
64855;DHT22;51321;50.428;8.378;2024-02-21T09:40:36;9.30;99.90
64855;DHT22;51321;50.428;8.378;2024-02-21T09:43:18;9.30;99.90
64855;DHT22;51321;50.428;8.378;2024-02-21T09:46:00;9.40;99.90
64855;DHT22;51321;50.428;8.378;2024-02-21T09:48:50;9.30;99.90
64855;DHT22;51321;50.428;8.378;2024-02-21T09:51:35;9.40;99.90
64855;DHT22;51321;50.428;8.378;2024-02-21T09:54:16;9.50;99.90
64855;DHT22;51321;50.428;8.378;2024-02-21T09:56:59;9.60;99.90
64855;DHT22;51321;50.428;8.378;2024-02-21T09:59:39;9.60;99.90
64855;DHT22;51321;50.428;8.378;2024-02-21T10:02:20;9.80;99.90
64855;DHT22;51321;50.428;8.378;2024-02-21T10:05:01;9.80;99.90
64855;DHT22;51321;50.428;8.378;2024-02-21T10:07:42;9.90;99.90
64855;DHT22;51321;50.428;8.378;2024-02-21T10:10:23;9.90;99.90
64855;DHT22;51321;50.428;8.378;2024-02-21T10:13:05;10.00;99.90
64855;DHT22;51321;50.428;8.378;2024-02-21T10:15:46;10.10;99.90
64855;DHT22;51321;50.428;8.378;2024-02-21T10:18:29;10.10;99.90
64855;DHT22;51321;50.428;8.378;2024-02-21T10:21:10;10.00;99.90
64855;DHT22;51321;50.428;8.378;2024-02-21T10:23:51;10.20;99.90
64855;DHT22;51321;50.428;8.378;2024-02-21T10:26:32;10.10;99.90
64855;DHT22;51321;50.428;8.378;2024-02-21T10:29:13;10.30;99.90
64855;DHT22;51321;50.428;8.378;2024-02-21T10:32:06;10.50;99.90
64855;DHT22;51321;50.428;8.378;2024-02-21T10:34:47;10.60;99.90
64855;DHT22;51321;50.428;8.378;2024-02-21T10:37:31;10.50;99.90
64855;DHT22;51321;50.428;8.378;2024-02-21T10:40:12;10.60;99.90
64855;DHT22;51321;50.428;8.378;2024-02-21T10:42:57;10.70;99.90
64855;DHT22;51321;50.428;8.378;2024-02-21T10:45:41;10.80;99.90
64855;DHT22;51321;50.428;8.378;2024-02-21T10:48:28;11.00;99.90
64855;DHT22;51321;50.428;8.378;2024-02-21T10:51:17;11.00;99.90
64855;DHT22;51321;50.428;8.378;2024-02-21T10:54:04;11.10;99.90
64855;DHT22;51321;50.428;8.378;2024-02-21T10:56:48;11.30;99.90
64855;DHT22;51321;50.428;8.378;2024-02-21T10:59:30;11.30;99.90
64855;DHT22;51321;50.428;8.378;2024-02-21T11:02:14;11.40;99.90
64855;DHT22;51321;50.428;8.378;2024-02-21T11:04:57;11.40;99.90
64855;DHT22;51321;50.428;8.378;2024-02-21T11:07:38;11.50;99.90
64855;DHT22;51321;50.428;8.378;2024-02-21T11:10:24;11.40;99.90
64855;DHT22;51321;50.428;8.378;2024-02-21T11:13:06;11.20;99.90
64855;DHT22;51321;50.428;8.378;2024-02-21T11:15:47;11.20;99.90
64855;DHT22;51321;50.428;8.378;2024-02-21T11:18:29;11.50;99.90
64855;DHT22;51321;50.428;8.378;2024-02-21T11:21:10;11.70;99.90
64855;DHT22;51321;50.428;8.378;2024-02-21T11:23:55;11.90;99.90
64855;DHT22;51321;50.428;8.378;2024-02-21T11:26:37;12.10;99.90
64855;DHT22;51321;50.428;8.378;2024-02-21T11:29:23;12.20;99.90
64855;DHT22;51321;50.428;8.378;2024-02-21T11:32:05;12.20;99.90
64855;DHT22;51321;50.428;8.378;2024-02-21T11:34:55;12.20;99.90
64855;DHT22;51321;50.428;8.378;2024-02-21T11:37:36;12.10;99.90
64855;DHT22;51321;50.428;8.378;2024-02-21T11:40:17;12.00;99.90
64855;DHT22;51321;50.428;8.378;2024-02-21T11:42:59;11.80;99.90
64855;DHT22;51321;50.428;8.378;2024-02-21T11:45:39;11.90;99.90
64855;DHT22;51321;50.428;8.378;2024-02-21T11:48:20;11.90;99.90
64855;DHT22;51321;50.428;8.378;2024-02-21T11:51:02;12.10;99.90
64855;DHT22;51321;50.428;8.378;2024-02-21T11:53:45;12.00;99.90
64855;DHT22;51321;50.428;8.378;2024-02-21T11:56:25;11.80;99.90
64855;DHT22;51321;50.428;8.378;2024-02-21T11:59:06;11.70;99.90
64855;DHT22;51321;50.428;8.378;2024-02-21T12:01:46;11.80;99.90
64855;DHT22;51321;50.428;8.378;2024-02-21T12:04:27;11.70;99.90
64855;DHT22;51321;50.428;8.378;2024-02-21T12:07:11;11.50;99.90
64855;DHT22;51321;50.428;8.378;2024-02-21T12:09:51;11.40;99.90
64855;DHT22;51321;50.428;8.378;2024-02-21T12:12:32;11.60;99.90
64855;DHT22;51321;50.428;8.378;2024-02-21T12:15:15;11.40;99.90
64855;DHT22;51321;50.428;8.378;2024-02-21T12:17:55;11.50;99.90
64855;DHT22;51321;50.428;8.378;2024-02-21T12:20:36;11.60;99.90
64855;DHT22;51321;50.428;8.378;2024-02-21T12:23:19;11.70;99.90
64855;DHT22;51321;50.428;8.378;2024-02-21T12:26:00;11.60;99.90
64855;DHT22;51321;50.428;8.378;2024-02-21T12:28:41;11.40;99.90
64855;DHT22;51321;50.428;8.378;2024-02-21T12:31:22;11.40;99.90
64855;DHT22;51321;50.428;8.378;2024-02-21T12:34:02;11.50;99.90
64855;DHT22;51321;50.428;8.378;2024-02-21T12:36:44;11.60;99.90
64855;DHT22;51321;50.428;8.378;2024-02-21T12:39:27;11.70;99.90
64855;DHT22;51321;50.428;8.378;2024-02-21T12:42:08;11.60;99.90
64855;DHT22;51321;50.428;8.378;2024-02-21T12:44:50;11.60;99.90
64855;DHT22;51321;50.428;8.378;2024-02-21T12:47:31;11.50;99.90
64855;DHT22;51321;50.428;8.378;2024-02-21T12:50:12;11.50;99.90
64855;DHT22;51321;50.428;8.378;2024-02-21T12:52:54;11.70;99.90
64855;DHT22;51321;50.428;8.378;2024-02-21T12:55:35;11.80;99.90
64855;DHT22;51321;50.428;8.378;2024-02-21T12:58:16;11.90;99.90
64855;DHT22;51321;50.428;8.378;2024-02-21T13:00:57;11.90;99.90
64855;DHT22;51321;50.428;8.378;2024-02-21T13:03:37;11.90;99.90
64855;DHT22;51321;50.428;8.378;2024-02-21T13:06:18;11.90;99.90
64855;DHT22;51321;50.428;8.378;2024-02-21T13:08:58;11.90;99.90
64855;DHT22;51321;50.428;8.378;2024-02-21T13:11:44;11.60;99.90
64855;DHT22;51321;50.428;8.378;2024-02-21T13:14:25;11.50;99.90
64855;DHT22;51321;50.428;8.378;2024-02-21T13:17:06;11.40;99.90
64855;DHT22;51321;50.428;8.378;2024-02-21T13:19:46;11.30;99.90
64855;DHT22;51321;50.428;8.378;2024-02-21T13:22:26;11.20;99.90
64855;DHT22;51321;50.428;8.378;2024-02-21T13:25:07;11.20;99.90
64855;DHT22;51321;50.428;8.378;2024-02-21T13:27:49;11.20;99.90
64855;DHT22;51321;50.428;8.378;2024-02-21T13:30:30;11.10;99.90
64855;DHT22;51321;50.428;8.378;2024-02-21T13:33:10;11.20;99.90
64855;DHT22;51321;50.428;8.378;2024-02-21T13:35:51;11.10;99.90
64855;DHT22;51321;50.428;8.378;2024-02-21T13:38:32;11.20;99.90
64855;DHT22;51321;50.428;8.378;2024-02-21T13:41:12;11.30;99.90
64855;DHT22;51321;50.428;8.378;2024-02-21T13:43:54;11.40;99.90
64855;DHT22;51321;50.428;8.378;2024-02-21T13:46:35;11.60;99.90
64855;DHT22;51321;50.428;8.378;2024-02-21T13:49:15;11.70;99.90
64855;DHT22;51321;50.428;8.378;2024-02-21T13:51:56;11.80;99.90
64855;DHT22;51321;50.428;8.378;2024-02-21T13:54:36;11.90;99.90
64855;DHT22;51321;50.428;8.378;2024-02-21T13:57:17;12.00;99.90
64855;DHT22;51321;50.428;8.378;2024-02-21T13:59:59;12.10;99.90
64855;DHT22;51321;50.428;8.378;2024-02-21T14:02:39;11.70;99.90
64855;DHT22;51321;50.428;8.378;2024-02-21T14:05:20;11.80;99.90
64855;DHT22;51321;50.428;8.378;2024-02-21T14:08:00;11.90;99.90
64855;DHT22;51321;50.428;8.378;2024-02-21T14:10:41;11.90;99.90
64855;DHT22;51321;50.428;8.378;2024-02-21T14:13:22;11.80;99.90
64855;DHT22;51321;50.428;8.378;2024-02-21T14:16:09;11.70;99.90
64855;DHT22;51321;50.428;8.378;2024-02-21T14:18:51;11.60;99.90
64855;DHT22;51321;50.428;8.378;2024-02-21T14:21:33;11.30;99.90
64855;DHT22;51321;50.428;8.378;2024-02-21T14:24:16;11.30;99.90
64855;DHT22;51321;50.428;8.378;2024-02-21T14:26:56;11.30;99.90
64855;DHT22;51321;50.428;8.378;2024-02-21T14:29:37;11.30;99.90
64855;DHT22;51321;50.428;8.378;2024-02-21T14:32:18;11.20;99.90
64855;DHT22;51321;50.428;8.378;2024-02-21T14:34:59;11.10;99.90
64855;DHT22;51321;50.428;8.378;2024-02-21T14:37:39;11.20;99.90
64855;DHT22;51321;50.428;8.378;2024-02-21T14:40:20;11.20;99.90
64855;DHT22;51321;50.428;8.378;2024-02-21T14:43:00;11.20;99.90
64855;DHT22;51321;50.428;8.378;2024-02-21T14:45:41;11.20;99.90
64855;DHT22;51321;50.428;8.378;2024-02-21T14:48:23;11.10;99.90
64855;DHT22;51321;50.428;8.378;2024-02-21T14:51:05;11.10;99.90
64855;DHT22;51321;50.428;8.378;2024-02-21T14:53:46;11.10;99.90
64855;DHT22;51321;50.428;8.378;2024-02-21T14:56:27;11.00;99.90
64855;DHT22;51321;50.428;8.378;2024-02-21T14:59:08;11.00;99.90
64855;DHT22;51321;50.428;8.378;2024-02-21T15:01:48;10.90;99.90
64855;DHT22;51321;50.428;8.378;2024-02-21T15:04:31;10.80;99.90
64855;DHT22;51321;50.428;8.378;2024-02-21T15:07:11;10.70;99.90
64855;DHT22;51321;50.428;8.378;2024-02-21T15:09:52;10.70;99.90
64855;DHT22;51321;50.428;8.378;2024-02-21T15:12:33;10.70;99.90
64855;DHT22;51321;50.428;8.378;2024-02-21T15:15:14;10.70;99.90
64855;DHT22;51321;50.428;8.378;2024-02-21T15:17:56;10.80;99.90
64855;DHT22;51321;50.428;8.378;2024-02-21T15:20:39;10.80;99.90
64855;DHT22;51321;50.428;8.378;2024-02-21T15:23:19;10.80;99.90
64855;DHT22;51321;50.428;8.378;2024-02-21T15:26:00;10.70;99.90
64855;DHT22;51321;50.428;8.378;2024-02-21T15:28:40;10.70;99.90
64855;DHT22;51321;50.428;8.378;2024-02-21T15:31:21;10.60;99.90
64855;DHT22;51321;50.428;8.378;2024-02-21T15:34:04;10.50;99.90
64855;DHT22;51321;50.428;8.378;2024-02-21T15:36:46;10.50;99.90
64855;DHT22;51321;50.428;8.378;2024-02-21T15:39:27;10.50;99.90
64855;DHT22;51321;50.428;8.378;2024-02-21T15:42:08;10.50;99.90
64855;DHT22;51321;50.428;8.378;2024-02-21T15:44:49;10.50;99.90
64855;DHT22;51321;50.428;8.378;2024-02-21T15:47:29;10.40;99.90
64855;DHT22;51321;50.428;8.378;2024-02-21T15:50:10;10.30;99.90
64855;DHT22;51321;50.428;8.378;2024-02-21T15:52:52;10.30;99.90
64855;DHT22;51321;50.428;8.378;2024-02-21T15:55:32;10.30;99.90
64855;DHT22;51321;50.428;8.378;2024-02-21T15:58:13;10.30;99.90
64855;DHT22;51321;50.428;8.378;2024-02-21T16:00:53;10.30;99.90
64855;DHT22;51321;50.428;8.378;2024-02-21T16:03:34;10.30;99.90
64855;DHT22;51321;50.428;8.378;2024-02-21T16:06:15;10.20;99.90
64855;DHT22;51321;50.428;8.378;2024-02-21T16:08:57;10.20;99.90
64855;DHT22;51321;50.428;8.378;2024-02-21T16:11:38;10.20;99.90
64855;DHT22;51321;50.428;8.378;2024-02-21T16:14:18;10.20;99.90
64855;DHT22;51321;50.428;8.378;2024-02-21T16:16:59;10.10;99.90
64855;DHT22;51321;50.428;8.378;2024-02-21T16:19:40;10.00;99.90
64855;DHT22;51321;50.428;8.378;2024-02-21T16:22:20;10.10;99.90
64855;DHT22;51321;50.428;8.378;2024-02-21T16:25:03;10.10;99.90
64855;DHT22;51321;50.428;8.378;2024-02-21T16:27:44;10.10;99.90
64855;DHT22;51321;50.428;8.378;2024-02-21T16:30:24;10.00;99.90
64855;DHT22;51321;50.428;8.378;2024-02-21T16:33:05;9.90;99.90
64855;DHT22;51321;50.428;8.378;2024-02-21T16:35:48;9.80;99.90
64855;DHT22;51321;50.428;8.378;2024-02-21T16:38:30;9.80;99.90
64855;DHT22;51321;50.428;8.378;2024-02-21T16:44:28;9.80;99.90
64855;DHT22;51321;50.428;8.378;2024-02-21T16:47:10;9.70;99.90
64855;DHT22;51321;50.428;8.378;2024-02-21T16:49:50;9.70;99.90
64855;DHT22;51321;50.428;8.378;2024-02-21T16:52:31;9.70;99.90
64855;DHT22;51321;50.428;8.378;2024-02-21T16:55:11;9.70;99.90
64855;DHT22;51321;50.428;8.378;2024-02-21T16:57:53;9.70;99.90
64855;DHT22;51321;50.428;8.378;2024-02-21T17:00:34;9.70;99.90
64855;DHT22;51321;50.428;8.378;2024-02-21T17:03:18;9.60;99.90
64855;DHT22;51321;50.428;8.378;2024-02-21T17:06:00;9.60;99.90
64855;DHT22;51321;50.428;8.378;2024-02-21T17:08:41;9.70;99.90
64855;DHT22;51321;50.428;8.378;2024-02-21T17:11:22;9.70;99.90
64855;DHT22;51321;50.428;8.378;2024-02-21T17:14:04;9.60;99.90
64855;DHT22;51321;50.428;8.378;2024-02-21T17:16:44;9.60;99.90